x

Diamond Shoals (41025) Wave Buoy

2:50pm - Fri 31st Oct 2014 All times are EDT. -4 hours from GMT.

  • Sig Wave height 5.9ft
  • Swell Direction
  • Peak Period 6s
  • Average Period 5s
  • Wind
    27mph, 31mph gusts
  • Air Temp 65°f
  • Sea Pressure 1006.4mb
  • Diamond Shoals
  • Diamond Shoals

More Historic Weather Station data

Upgrade to MSW Pro to gain access to the past 30 days of data for over 8000 Wavebouys and Weather Stations around the globe.

Join Pro

Comparision Forecast

View Surf forecast
   
Fri 10/31 2:50pm 6ft 6s 5s 27 31 mph 1006.4mb 65f
1:50pm 6.5ft 6s 6s 22 29 mph 1006.9mb 66f
12:50pm 6.5ft 7s 6s 25 31 mph 1007.6mb 65f
11:50am 6.5ft 6s 5s 27 34 mph 1008.2mb 65f
10:50am 6ft 7s 5s 29 36 mph 1008.2mb 66f
9:50am 6ft 6s 5s 31 38 mph 1008.4mb 65f
8:50am 6ft 6s 5s 25 29 mph 1010.3mb 64f
7:50am 6ft 6s 5s 25 31 mph 1009.9mb 63f
6:50am 6ft 6s 5s 29 36 mph 1009.5mb 64f
5:50am 6ft 7s 5s 29 36 mph 1009.6mb 65f
4:50am 5.5ft 6s 5s 27 31 mph 1010.3mb 65f
3:50am 5.5ft 6s 5s 25 31 mph 1010.8mb 64f
2:50am 5ft 6s 5s 25 31 mph 1011.3mb 64f
1:50am 5ft 6s 5s 22 29 mph 1011.9mb 65f
12:50am 5ft 8s 5s 22 29 mph 1012.4mb 65f
Thu 10/30 11:50pm 5ft 6s 5s 22 29 mph 1013.1mb 65f
10:50pm 4.5ft 5s 5s 22 29 mph 1013.6mb 65f
9:50pm 4.5ft 6s 5s 22 29 mph 1013.7mb 65f
8:50pm 4.5ft 6s 5s 22 29 mph 1013.7mb 65f
7:50pm 4ft 5s 4s 22 27 mph 1014mb 65f
6:50pm 4ft 5s 5s 22 29 mph 1013.7mb 65f
5:50pm 4.5ft 5s 5s 22 27 mph 1013.4mb 67f
4:50pm 4.5ft 6s 5s 20 29 mph 1013.3mb 67f
3:50pm 4.5ft 5s 5s 20 27 mph 1013.1mb 67f
12:50pm 4ft 5s 5s 20 25 mph 1014.2mb 67f
11:50am 4.5ft 5s 5s 20 25 mph 1014.5mb 67f
10:50am 4.5ft 6s 5s 20 22 mph 1014.5mb 67f
9:50am 4.5ft 6s 5s 20 25 mph 1014.6mb 67f
8:50am 5ft 6s 5s 20 22 mph 1014.3mb 67f
7:50am 5ft 6s 5s 22 27 mph 1013.4mb 66f
6:50am 5ft 5s 5s 22 27 mph 1013.1mb 65f
5:50am 3.5ft 5s 4s 25 29 mph 1012.8mb 65f
4:50am 3.5ft 5s 4s 18 22 mph 1012.4mb 68f
3:50am 3.5ft 5s 4s 13 18 mph 1012.7mb 68f
2:50am 4.5ft 5s 4s 27 36 mph 1011.7mb 74f
1:50am 4.5ft 5s 4s 20 25 mph 1012.6mb 75f
12:50am 4.5ft 5s 4s 18 22 mph 1013.1mb 75f
Wed 10/29 11:50pm 3.5ft 5s 4s 20 25 mph 1013.4mb 75f
10:50pm 3.5ft 4s 4s 20 25 mph 1013.8mb 76f
9:50pm 3.5ft 5s 4s 20 22 mph 1013.9mb 76f
8:50pm 3.5ft 4s 4s 20 25 mph 1013.9mb 76f
7:50pm 3.5ft 5s 4s 18 22 mph 1014.2mb 76f
6:50pm 4ft 5s 4s 18 22 mph 1014.1mb 76f
5:50pm 4ft 5s 4s 18 22 mph 1013.9mb 76f
4:50pm 4.5ft 5s 4s 18 22 mph 1014.2mb 76f
3:50pm 4ft 5s 4s 20 25 mph 1014.4mb 76f
2:50pm 4.5ft 5s  -  18 22 mph 1014.8mb 76f
1:50pm 4.5ft 5s 4s 22 25 mph 1015.5mb 76f
12:50pm 4.5ft 5s 4s 20 25 mph 1016.5mb 76f
11:50am 4.5ft 5s 4s 20 22 mph 1017.4mb 76f
10:50am 4ft 5s 4s 20 25 mph 1017.7mb 76f
9:50am 4.5ft 5s 4s 22 27 mph 1017.8mb 77f
8:50am  -   -   -  20 25 mph 1018.1mb 77f
7:50am 4ft 5s 4s 22 27 mph 1018mb 77f
6:50am 4ft 5s 4s 18 20 mph 1018.1mb 75f
5:50am 3.5ft 5s 4s 18 22 mph 1018.2mb 76f
4:50am 3.5ft 4s 4s 18 20 mph 1018mb 76f
3:50am 3.5ft 4s 4s 16 18 mph 1018.2mb 76f
2:50am 3.5ft 4s 4s 18 22 mph 1018.4mb 76f
1:50am 3.5ft 4s 4s 20 25 mph 1018.5mb 76f
12:50am 2.5ft 4s 4s 20 22 mph 1018.9mb 77f
Tue 10/28 11:50pm 2.5ft 3s 4s 18 22 mph 1019.2mb 78f
10:50pm 2.5ft 4s 4s 18 20 mph 1019.5mb 77f
9:50pm 2ft 7s 4s 18 22 mph 1019.8mb 77f
8:50pm 2ft 8s 4s 18 20 mph 1019.8mb 77f
7:50pm 2ft 8s 4s 18 20 mph 1019.9mb 77f
6:50pm 2ft 8s 4s 16 18 mph 1019.8mb 77f
5:50pm 2ft 7s 4s 16 18 mph 1019.8mb 78f
4:50pm 2ft 8s 4s 16 20 mph 1019.7mb 78f
3:50pm 2.5ft 8s 5s 16 18 mph 1020mb 78f
2:50pm 2.5ft 8s 6s 13 16 mph 1020.2mb 78f
1:50pm 2ft 8s 6s 13 16 mph 1020.6mb 78f
12:50pm 2ft 8s 6s 11
mph
1021.4mb 78f
11:50am 2ft 8s 6s 7 9 mph 1022.1mb 77f
9:50am 2ft 8s 6s 2 4 mph 1022.3mb 76f
8:50am 2ft 8s 6s 2 4 mph 1022.2mb 75f
7:50am 2ft 7s 6s 4
mph
1021.8mb 76f
6:50am 2ft 8s 6s 7
mph
1021.6mb 72f
5:50am 2ft 7s 6s 7 9 mph 1021.2mb 72f
4:50am 2.5ft 8s 6s 7 9 mph 1020.8mb 73f
3:50am 2ft 8s 6s 7 9 mph 1020.5mb 73f
2:50am 2.5ft 8s 6s 11
mph
1020.5mb 72f
1:50am 2.5ft 8s 6s 9 11 mph 1020.5mb 72f
12:50am 2.5ft 7s 6s 9 11 mph 1020.2mb 71f
Mon 10/27 11:50pm 2.5ft 7s 6s 9 11 mph 1020.1mb 71f
10:50pm 2.5ft 8s 6s 7 9 mph 1020.4mb 70f
9:50pm 2.5ft 8s 6s 4 9 mph 1020.5mb 70f
8:50pm 2.5ft 8s 6s 2 4 mph 1020.3mb 70f
7:50pm 2.5ft 8s 6s  -  2 mph 1020.2mb 69f